createdAt,value
2019-05-09T00:01:15.873Z,0.82
2019-05-09T00:03:45.506Z,0.60
2019-05-09T00:06:15.019Z,0.60
2019-05-09T00:08:44.554Z,0.88
2019-05-09T00:11:14.748Z,0.68
2019-05-09T00:13:44.711Z,0.60
2019-05-09T00:16:14.653Z,0.78
2019-05-09T00:18:44.480Z,0.60
2019-05-09T00:21:15.503Z,0.90
2019-05-09T00:23:44.963Z,0.55
2019-05-09T00:26:14.456Z,0.75
2019-05-09T00:28:45.512Z,0.60
2019-05-09T00:31:16.565Z,0.55
2019-05-09T00:33:48.151Z,0.70
2019-05-09T00:36:18.338Z,0.65
2019-05-09T00:38:47.756Z,0.60
2019-05-09T00:41:17.208Z,0.53
2019-05-09T00:43:50.898Z,0.60
2019-05-09T00:46:23.663Z,0.78
2019-05-09T00:48:54.941Z,0.60
2019-05-09T00:51:24.608Z,0.78
2019-05-09T00:53:54.189Z,0.50
2019-05-09T00:56:24.080Z,0.40
2019-05-09T00:58:53.933Z,0.70
2019-05-09T01:01:24.145Z,0.50
2019-05-09T01:03:54.186Z,0.33
2019-05-09T01:06:24.156Z,0.53
2019-05-09T01:08:54.059Z,0.70
2019-05-09T01:11:24.234Z,0.60
2019-05-09T01:13:54.674Z,0.68
2019-05-09T01:16:24.448Z,0.60
2019-05-09T01:18:54.750Z,0.47
2019-05-09T01:21:24.337Z,0.80
2019-05-09T01:23:54.295Z,0.60
2019-05-09T01:26:24.343Z,0.50
2019-05-09T01:28:54.389Z,0.70
2019-05-09T01:31:24.476Z,0.60
2019-05-09T01:33:58.764Z,0.57
2019-05-09T01:36:30.030Z,0.55
2019-05-09T01:38:59.653Z,0.70
2019-05-09T01:41:33.410Z,0.60
2019-05-09T01:44:00.482Z,0.68
2019-05-09T01:46:29.867Z,0.60
2019-05-09T01:48:59.347Z,0.70
2019-05-09T01:51:28.926Z,0.53
2019-05-09T01:53:58.495Z,0.68
2019-05-09T01:56:27.917Z,0.70
2019-05-09T01:58:57.618Z,0.50
2019-05-09T02:01:27.253Z,0.40
2019-05-09T02:03:58.229Z,0.50
2019-05-09T02:06:28.373Z,0.40
2019-05-09T02:08:57.833Z,0.62
2019-05-09T02:11:39.465Z,0.40
2019-05-09T02:13:58.560Z,0.47
2019-05-09T02:16:36.519Z,0.53
2019-05-09T02:19:13.699Z,0.82
2019-05-09T02:21:43.817Z,0.60
2019-05-09T02:24:14.228Z,0.50
2019-05-09T02:26:44.021Z,0.60
2019-05-09T02:29:13.961Z,0.45
2019-05-09T02:31:44.739Z,0.40
2019-05-09T02:34:15.193Z,0.70
2019-05-09T02:36:45.066Z,0.55
2019-05-09T02:39:14.586Z,0.60
2019-05-09T02:41:59.653Z,0.78
2019-05-09T02:44:15.393Z,0.68
2019-05-09T02:46:49.365Z,0.50
2019-05-09T02:49:19.278Z,0.68
2019-05-09T02:51:49.018Z,0.60
2019-05-09T02:54:19.243Z,0.50
2019-05-09T02:56:49.484Z,0.88
2019-05-09T02:59:29.679Z,0.70
2019-05-09T03:02:09.615Z,0.62
2019-05-09T03:04:39.624Z,0.47
2019-05-09T03:07:09.897Z,0.68
2019-05-09T03:09:39.561Z,0.70
2019-05-09T03:12:22.991Z,0.80
2019-05-09T03:14:40.267Z,0.70
2019-05-09T03:17:09.880Z,0.70
2019-05-09T03:19:39.242Z,0.62
2019-05-09T03:22:19.265Z,0.93
2019-05-09T03:24:48.975Z,0.68
2019-05-09T03:27:20.084Z,0.60
2019-05-09T03:29:51.189Z,0.70
2019-05-09T03:32:20.709Z,0.70
2019-05-09T03:34:50.637Z,0.80
2019-05-09T03:37:20.533Z,0.72
2019-05-09T03:39:50.221Z,0.70
2019-05-09T03:42:23.082Z,0.68
2019-05-09T03:44:52.042Z,0.60
2019-05-09T03:47:27.605Z,0.55
2019-05-09T03:50:17.463Z,0.68
2019-05-09T03:52:47.892Z,0.40
2019-05-09T03:55:19.670Z,0.35
2019-05-09T03:57:51.370Z,1.00
2019-05-09T04:00:21.887Z,0.57
2019-05-09T04:02:52.290Z,0.80
2019-05-09T04:05:22.875Z,0.57
2019-05-09T04:07:53.590Z,0.57
2019-05-09T04:10:23.978Z,0.60
2019-05-09T04:12:57.184Z,0.53
2019-05-09T04:15:27.512Z,0.50
2019-05-09T04:17:57.987Z,0.50
2019-05-09T04:20:28.648Z,0.60
2019-05-09T04:22:59.545Z,0.75
2019-05-09T04:25:31.444Z,0.80
2019-05-09T04:28:03.174Z,0.40
2019-05-09T04:30:33.768Z,0.80
2019-05-09T04:33:04.135Z,0.42
2019-05-09T04:35:34.679Z,0.90
2019-05-09T04:38:07.343Z,0.68
2019-05-09T04:40:44.591Z,0.50
2019-05-09T04:43:15.547Z,0.60
2019-05-09T04:45:42.766Z,0.50
2019-05-09T04:48:33.020Z,0.80
2019-05-09T04:51:07.626Z,0.80
2019-05-09T04:53:39.775Z,0.50
2019-05-09T04:56:20.402Z,0.90
2019-05-09T04:58:50.481Z,0.50
2019-05-09T05:01:22.190Z,0.60
2019-05-09T05:03:54.057Z,0.60
2019-05-09T05:06:24.573Z,0.68
2019-05-09T05:08:55.113Z,0.60
2019-05-09T05:11:27.859Z,0.60
2019-05-09T05:13:58.607Z,0.50
2019-05-09T05:16:29.284Z,0.85
2019-05-09T05:18:59.484Z,0.65
2019-05-09T05:21:29.996Z,0.90
2019-05-09T05:24:02.321Z,1.00
2019-05-09T05:26:32.305Z,0.80
2019-05-09T05:29:03.045Z,0.75
2019-05-09T05:31:33.162Z,0.85
2019-05-09T05:34:05.257Z,0.90
2019-05-09T05:36:44.877Z,0.85
2019-05-09T05:39:15.082Z,0.82
2019-05-09T05:41:45.631Z,1.10
2019-05-09T05:44:17.716Z,1.05
2019-05-09T05:46:50.720Z,1.20
2019-05-09T05:49:20.015Z,1.12
2019-05-09T05:51:50.520Z,1.27
2019-05-09T05:54:21.648Z,1.40
2019-05-09T05:56:51.792Z,1.22
2019-05-09T05:59:21.881Z,1.40
2019-05-09T06:01:51.999Z,1.60
2019-05-09T06:04:21.813Z,1.77
2019-05-09T06:06:51.865Z,1.20
2019-05-09T06:09:22.068Z,1.72
2019-05-09T06:11:51.872Z,1.50
2019-05-09T06:14:22.271Z,1.30
2019-05-09T06:16:52.706Z,1.62
2019-05-09T06:19:23.136Z,1.40
2019-05-09T06:21:53.278Z,1.30
2019-05-09T06:24:23.602Z,1.50
2019-05-09T06:26:54.063Z,1.40
2019-05-09T06:29:24.520Z,1.50
2019-05-09T06:31:58.273Z,1.27
2019-05-09T06:34:28.197Z,1.52
2019-05-09T06:36:58.812Z,1.22
2019-05-09T06:39:30.027Z,1.45
2019-05-09T06:42:00.250Z,1.37
2019-05-09T06:44:44.711Z,1.30
2019-05-09T06:47:19.506Z,1.47
2019-05-09T06:49:51.341Z,1.00
2019-05-09T06:52:21.472Z,1.30
2019-05-09T06:54:51.990Z,1.20
2019-05-09T06:57:22.677Z,1.75
2019-05-09T06:59:53.689Z,1.22
2019-05-09T07:02:31.319Z,1.30
2019-05-09T07:05:03.108Z,1.25
2019-05-09T07:07:45.560Z,1.50
2019-05-09T07:12:45.123Z,1.60
2019-05-09T07:15:17.633Z,1.60
2019-05-09T07:17:48.167Z,2.55
2019-05-09T07:20:18.613Z,1.92
2019-05-09T07:22:50.847Z,2.00
2019-05-09T07:25:22.655Z,1.70
2019-05-09T07:27:53.732Z,1.42
2019-05-09T07:30:25.695Z,1.50
2019-05-09T07:33:14.013Z,1.72
2019-05-09T07:35:44.301Z,1.70
2019-05-09T07:38:14.492Z,1.37
2019-05-09T07:40:44.839Z,1.62
2019-05-09T07:43:14.588Z,1.32
2019-05-09T07:46:02.599Z,1.57
2019-05-09T07:48:32.706Z,1.30
2019-05-09T07:51:03.546Z,1.35
2019-05-09T07:53:34.181Z,1.32
2019-05-09T07:56:04.406Z,1.37
2019-05-09T07:58:37.510Z,1.32
2019-05-09T08:01:08.624Z,1.40
2019-05-09T15:00:51.545Z,125.82
2019-05-09T15:03:22.178Z,123.18
2019-05-09T15:05:52.551Z,129.70
2019-05-09T15:08:22.643Z,123.62
2019-05-09T15:10:52.934Z,134.55
2019-05-09T15:13:22.668Z,137.00
2019-05-09T15:15:53.355Z,136.40
2019-05-09T15:18:23.874Z,130.20
2019-05-09T15:20:53.938Z,253.45
2019-05-09T15:23:24.748Z,137.12
2019-05-09T15:35:09.055Z,129.60
2019-05-09T15:37:39.684Z,134.67
2019-05-09T15:40:10.210Z,127.07
2019-05-09T15:42:40.845Z,132.65
2019-05-09T15:45:11.467Z,125.33
2019-05-09T15:47:41.842Z,127.20
2019-05-09T15:50:20.080Z,125.40
2019-05-09T15:52:44.544Z,121.42
2019-05-09T15:55:17.553Z,125.90
2019-05-09T15:57:48.573Z,122.28
2019-05-09T16:00:19.344Z,121.45
2019-05-09T16:02:49.982Z,120.00
2019-05-09T16:05:20.494Z,119.82
2019-05-09T16:07:50.660Z,172.05
2019-05-09T16:10:21.098Z,121.02
2019-05-09T16:12:53.908Z,118.28
2019-05-09T16:15:24.383Z,118.42
2019-05-09T16:17:54.740Z,121.72
2019-05-09T16:20:36.848Z,122.05
2019-05-09T16:22:57.395Z,122.40
2019-05-09T16:25:28.269Z,121.13
2019-05-09T16:27:58.812Z,123.78
2019-05-09T16:41:09.008Z,122.05
2019-05-09T16:43:39.694Z,121.30
2019-05-09T16:46:10.529Z,120.80
2019-05-09T16:48:40.707Z,123.97
2019-05-09T16:51:11.225Z,122.35
2019-05-09T16:53:41.692Z,121.00
2019-05-09T16:56:11.757Z,121.80
2019-05-09T16:58:42.420Z,120.40
2019-05-09T17:01:12.568Z,131.52
2019-05-09T17:03:42.896Z,121.80
2019-05-09T17:06:13.023Z,121.42
2019-05-09T17:08:43.192Z,121.30
2019-05-09T17:11:13.758Z,122.47
2019-05-09T17:13:44.349Z,122.58
2019-05-09T17:16:14.829Z,122.30
2019-05-09T17:18:45.018Z,122.82
2019-05-09T17:21:28.527Z,192.75
2019-05-09T17:24:48.357Z,121.85
2019-05-09T17:27:19.097Z,122.13
2019-05-09T17:29:49.711Z,122.45
2019-05-09T17:32:20.398Z,121.33
2019-05-09T17:34:50.812Z,121.05
2019-05-09T17:37:21.529Z,121.35
2019-05-09T17:39:51.834Z,122.30
2019-05-09T17:42:22.159Z,122.98
2019-05-09T17:44:52.639Z,119.25
2019-05-09T17:47:23.230Z,120.50
2019-05-09T17:49:53.231Z,119.35
2019-05-09T17:52:23.185Z,118.27
2019-05-09T17:54:53.186Z,118.77
2019-05-09T17:57:23.281Z,119.67
2019-05-09T17:59:53.527Z,117.93
2019-05-09T18:02:23.918Z,119.13
2019-05-09T18:04:54.609Z,119.15
2019-05-09T18:07:24.966Z,119.33
2019-05-09T18:09:57.893Z,119.62
2019-05-09T18:12:27.830Z,120.45
2019-05-09T18:14:58.346Z,118.30
2019-05-09T18:17:28.798Z,118.53
2019-05-09T18:19:59.212Z,118.47
2019-05-09T18:22:29.647Z,119.10
2019-05-09T18:24:59.961Z,118.85
2019-05-09T18:27:30.078Z,120.70
2019-05-09T18:30:00.255Z,118.97
2019-05-09T18:32:48.228Z,118.47
2019-05-09T18:35:22.850Z,119.15
2019-05-09T18:37:53.027Z,117.55
2019-05-09T18:40:23.166Z,118.50
2019-05-09T18:42:53.068Z,117.15
2019-05-09T18:45:23.225Z,119.62
2019-05-09T18:47:53.332Z,119.02
2019-05-09T18:50:23.244Z,120.30
2019-05-09T18:52:53.230Z,119.45
2019-05-09T18:55:23.219Z,118.15
2019-05-09T18:57:53.256Z,118.67
2019-05-09T19:00:24.377Z,118.00
2019-05-09T19:02:54.366Z,119.42
2019-05-09T19:05:24.462Z,120.65
2019-05-09T19:07:54.453Z,118.37
2019-05-09T19:10:24.562Z,119.13
2019-05-09T19:12:54.699Z,122.03
2019-05-09T19:15:26.524Z,121.90
2019-05-09T19:18:10.042Z,119.45
2019-05-09T19:20:39.449Z,121.20
2019-05-09T19:23:09.212Z,119.75
2019-05-09T19:25:38.739Z,119.37
2019-05-09T19:28:08.631Z,118.87
2019-05-09T19:30:38.235Z,118.97
2019-05-09T19:33:07.767Z,120.17
2019-05-09T19:35:37.229Z,118.40
2019-05-09T19:38:06.941Z,116.75
2019-05-09T19:40:36.445Z,118.17
2019-05-09T19:43:05.912Z,118.20
2019-05-09T19:45:35.460Z,118.15
2019-05-09T19:48:04.987Z,117.75
2019-05-09T19:50:34.534Z,117.05
2019-05-09T19:53:04.024Z,116.55
2019-05-09T19:55:33.544Z,117.53
2019-05-09T19:58:02.955Z,119.00
2019-05-09T20:00:32.368Z,116.85
2019-05-09T20:03:01.799Z,118.37
2019-05-09T20:05:31.319Z,116.12
2019-05-09T20:08:00.789Z,119.65
2019-05-09T20:10:30.105Z,116.85
2019-05-09T20:13:20.776Z,116.95
2019-05-09T20:15:50.239Z,116.62
2019-05-09T20:18:19.689Z,119.02
2019-05-09T20:20:49.230Z,117.45
2019-05-09T20:23:18.660Z,118.20
2019-05-09T20:25:48.205Z,117.70
2019-05-09T20:28:17.596Z,116.80
2019-05-09T20:30:47.295Z,118.53
2019-05-09T20:33:16.973Z,119.55
2019-05-09T20:35:46.468Z,117.15
2019-05-09T20:38:16.267Z,117.60
2019-05-09T20:40:47.539Z,117.40
2019-05-09T20:43:17.190Z,119.55
2019-05-09T20:45:46.872Z,117.47
2019-05-09T20:48:16.407Z,117.93
2019-05-09T20:50:46.154Z,117.22
2019-05-09T20:53:15.696Z,116.85
2019-05-09T20:55:45.201Z,117.33
2019-05-09T20:58:14.834Z,115.95
2019-05-09T21:00:44.433Z,117.50
2019-05-09T21:03:14.067Z,118.90
2019-05-09T21:05:43.674Z,118.30
2019-05-09T21:08:13.306Z,117.25
2019-05-09T21:10:43.005Z,117.67
2019-05-09T21:13:12.561Z,116.53
2019-05-09T21:15:42.253Z,118.72
2019-05-09T21:18:12.178Z,117.13
2019-05-09T21:20:41.841Z,117.87
2019-05-09T21:23:23.845Z,118.53
2019-05-09T21:25:43.379Z,117.35
2019-05-09T21:28:14.601Z,117.25
2019-05-09T21:30:45.164Z,117.03
2019-05-09T21:33:14.721Z,116.37
2019-05-09T21:35:44.379Z,119.80
2019-05-09T21:38:13.883Z,117.37
2019-05-09T21:40:43.854Z,116.20
2019-05-09T21:43:13.317Z,116.35
2019-05-09T21:45:43.049Z,116.03
2019-05-09T21:48:12.399Z,116.45
2019-05-09T21:50:41.759Z,116.20
2019-05-09T21:53:11.278Z,116.82
2019-05-09T21:55:40.802Z,116.88
2019-05-09T21:58:10.206Z,116.90
2019-05-09T22:00:40.469Z,117.62
2019-05-09T22:03:10.471Z,115.92
2019-05-09T22:05:39.926Z,117.47
2019-05-09T22:08:09.366Z,118.28
2019-05-09T22:10:38.818Z,118.53
2019-05-09T22:13:08.391Z,118.70
2019-05-09T22:15:37.828Z,116.90
2019-05-09T22:18:07.375Z,117.08
2019-05-09T22:20:36.796Z,117.35
2019-05-09T22:23:06.724Z,119.75
2019-05-09T22:25:36.414Z,117.47
2019-05-09T22:28:05.958Z,115.90
2019-05-09T22:30:35.576Z,117.40
2019-05-09T22:33:05.046Z,117.90
2019-05-09T22:35:34.565Z,116.65
2019-05-09T22:38:04.023Z,117.67
2019-05-09T22:40:33.440Z,116.85
2019-05-09T22:43:02.912Z,117.35
2019-05-09T22:45:32.318Z,117.15
2019-05-09T22:48:01.707Z,118.15
2019-05-09T22:50:31.268Z,116.93
2019-05-09T22:53:00.758Z,116.97
2019-05-09T22:55:30.183Z,117.85
2019-05-09T22:57:59.634Z,118.57
2019-05-09T23:00:28.997Z,120.87
2019-05-09T23:02:58.399Z,117.15
2019-05-09T23:05:27.971Z,116.60
2019-05-09T23:07:57.471Z,117.97
2019-05-09T23:10:26.843Z,120.75
2019-05-09T23:12:56.215Z,118.50
2019-05-09T23:15:25.649Z,116.03
2019-05-09T23:17:55.079Z,117.37
2019-05-09T23:20:42.144Z,116.97
2019-05-09T23:23:29.172Z,117.65
2019-05-09T23:25:59.050Z,116.93
2019-05-09T23:28:28.855Z,117.28
2019-05-09T23:31:02.714Z,115.25
2019-05-09T23:33:33.901Z,115.75
2019-05-09T23:36:03.496Z,115.72
2019-05-09T23:38:32.913Z,116.53
2019-05-09T23:41:02.274Z,115.60
2019-05-09T23:43:31.719Z,117.77
2019-05-09T23:46:01.385Z,117.70
2019-05-09T23:48:30.779Z,117.70
2019-05-09T23:51:00.472Z,118.85
2019-05-09T23:53:32.896Z,116.05
2019-05-09T23:56:20.087Z,117.53
2019-05-09T23:59:06.762Z,116.90
